createdAt,value
2023-04-27T04:01:47.908Z,4.03
2023-04-27T04:05:59.516Z,4.43
2023-04-27T04:10:11.550Z,4.70
2023-04-27T04:14:23.529Z,4.60
2023-04-27T04:18:36.157Z,4.47
2023-04-27T04:22:48.317Z,4.40
2023-04-27T04:26:59.802Z,5.18
2023-04-27T04:31:11.433Z,5.40
2023-04-27T04:35:24.165Z,4.40
2023-04-27T04:39:35.646Z,4.95
2023-04-27T04:43:49.432Z,4.43
2023-04-27T04:48:02.328Z,4.50
2023-04-27T04:52:13.817Z,4.00
2023-04-27T04:56:25.651Z,4.55
2023-04-27T05:00:38.390Z,4.88
2023-04-27T05:04:52.349Z,6.10
2023-04-27T05:09:06.350Z,7.18
2023-04-27T05:13:18.072Z,6.28
2023-04-27T05:17:29.566Z,5.75
2023-04-27T05:21:41.077Z,5.53
2023-04-27T05:25:52.625Z,4.88
2023-04-27T05:30:04.503Z,4.47
2023-04-27T05:34:16.382Z,4.55
2023-04-27T05:38:27.952Z,5.60
2023-04-27T05:42:39.426Z,5.45
2023-04-27T05:46:50.940Z,5.22
2023-04-27T05:51:03.367Z,4.78
2023-04-27T05:55:15.953Z,4.80
2023-04-27T05:59:29.241Z,4.85
2023-04-27T06:03:40.967Z,4.15
2023-04-27T06:07:52.612Z,4.88
2023-04-27T06:12:05.383Z,4.90
2023-04-27T06:16:17.076Z,4.47
2023-04-27T06:20:28.798Z,4.20
2023-04-27T06:24:40.549Z,4.25
2023-04-27T06:28:52.147Z,4.72
2023-04-27T06:33:03.664Z,5.05
2023-04-27T06:37:16.994Z,4.10
2023-04-27T06:41:28.535Z,4.05
2023-04-27T06:45:40.039Z,4.05
2023-04-27T06:49:51.847Z,4.25
2023-04-27T06:54:03.804Z,4.60
2023-04-27T06:58:15.306Z,4.40
2023-04-27T07:02:26.902Z,5.25
2023-04-27T07:06:38.444Z,4.82
2023-04-27T07:10:49.979Z,4.65
2023-04-27T07:15:03.619Z,5.10
2023-04-27T07:19:15.379Z,5.00
2023-04-27T07:23:27.216Z,4.63
2023-04-27T07:27:39.716Z,4.80
2023-04-27T07:31:52.897Z,4.70
2023-04-27T07:36:05.260Z,5.25
2023-04-27T07:40:17.036Z,4.43
2023-04-27T07:44:28.805Z,5.35
2023-04-27T07:48:40.340Z,5.40
2023-04-27T07:52:53.891Z,4.55
2023-04-27T07:57:10.440Z,4.88
2023-04-27T08:01:22.227Z,4.80
2023-04-27T08:05:34.069Z,4.82
2023-04-27T08:09:46.085Z,4.32
2023-04-27T08:13:57.596Z,4.72
2023-04-27T08:18:09.170Z,4.90
2023-04-27T08:22:20.988Z,4.57
2023-04-27T08:26:32.999Z,4.63
2023-04-27T08:30:44.696Z,4.97
2023-04-27T08:34:56.231Z,4.60
2023-04-27T08:39:07.912Z,4.40
2023-04-27T08:43:19.417Z,4.47
2023-04-27T08:47:41.957Z,4.78
2023-04-27T08:51:55.144Z,4.53
2023-04-27T08:56:07.024Z,4.07
2023-04-27T09:00:19.319Z,4.18
2023-04-27T09:04:40.178Z,3.40
2023-04-27T09:08:51.809Z,3.40
2023-04-27T09:13:03.343Z,3.85
2023-04-27T09:17:14.911Z,3.20
2023-04-27T09:21:28.707Z,3.10
2023-04-27T09:25:40.265Z,3.05
2023-04-27T09:29:51.757Z,3.40
2023-04-27T09:34:03.733Z,2.47
2023-04-27T09:38:16.563Z,3.45
2023-04-27T09:42:28.533Z,2.90
2023-04-27T09:46:43.770Z,3.28
2023-04-27T09:50:55.319Z,3.00
2023-04-27T09:55:11.364Z,3.60
2023-04-27T10:00:00.302Z,2.80
2023-04-27T10:04:33.467Z,2.80
2023-04-27T10:08:45.797Z,2.88
2023-04-27T10:13:01.048Z,2.83
2023-04-27T10:17:13.265Z,3.05
2023-04-27T10:21:24.930Z,3.00
2023-04-27T10:25:41.563Z,3.30
2023-04-27T10:29:53.693Z,2.78
2023-04-27T10:34:10.334Z,3.28
2023-04-27T10:38:28.677Z,2.80
2023-04-27T10:42:41.361Z,3.10
2023-04-27T10:46:53.772Z,2.63
2023-04-27T10:51:05.390Z,2.55
2023-04-27T10:55:22.251Z,2.35
2023-04-27T10:59:35.171Z,2.30
2023-04-27T11:03:55.281Z,2.30
2023-04-27T11:08:14.399Z,2.65
2023-04-27T11:12:26.147Z,2.40
2023-04-27T11:16:46.205Z,2.38
2023-04-27T11:21:09.562Z,2.40
2023-04-27T11:25:28.345Z,2.65
2023-04-27T11:29:40.386Z,2.10
2023-04-27T11:33:52.252Z,2.30
2023-04-27T11:38:03.768Z,2.55
2023-04-27T11:42:28.223Z,2.20
2023-04-27T11:46:44.008Z,2.40
2023-04-27T11:50:59.022Z,2.60
2023-04-27T11:55:15.864Z,2.63
2023-04-27T11:59:28.184Z,2.75
2023-04-27T12:03:40.037Z,2.30
2023-04-27T12:07:52.178Z,2.28
2023-04-27T12:12:04.131Z,2.28
2023-04-27T12:16:15.699Z,2.40
2023-04-27T12:20:27.351Z,2.20
2023-04-27T12:24:38.848Z,1.92
2023-04-27T12:28:50.395Z,1.80
2023-04-27T12:33:04.423Z,1.80
2023-04-27T12:37:16.044Z,1.83
2023-04-27T12:41:27.551Z,1.73
2023-04-27T12:45:39.075Z,1.73
2023-04-27T12:49:51.124Z,2.40
2023-04-27T12:54:03.483Z,1.75
2023-04-27T12:58:15.091Z,1.77
2023-04-27T13:02:27.225Z,1.90
2023-04-27T13:06:38.825Z,1.90
2023-04-27T13:10:50.363Z,1.75
2023-04-27T13:15:01.852Z,1.70
2023-04-27T13:19:13.357Z,1.73
2023-04-27T13:23:26.695Z,1.52
2023-04-27T13:27:38.212Z,1.63
2023-04-27T13:31:50.637Z,1.70
2023-04-27T13:36:03.800Z,1.50
2023-04-27T13:40:15.509Z,1.60
2023-04-27T13:44:26.997Z,1.67
2023-04-27T13:48:38.522Z,1.90
2023-04-27T13:52:50.091Z,1.80
2023-04-27T13:57:03.390Z,11.48
2023-04-27T14:01:14.947Z,2.03
2023-04-27T14:05:27.033Z,2.00
2023-04-27T14:09:38.591Z,1.85
2023-04-27T14:13:50.244Z,1.98
2023-04-27T14:18:01.860Z,1.60
2023-04-27T14:22:13.488Z,1.67
2023-04-27T14:26:24.966Z,1.85
2023-04-27T14:30:36.467Z,1.40
2023-04-27T14:34:48.040Z,1.42
2023-04-27T14:39:01.147Z,1.60
2023-04-27T14:43:13.222Z,1.50
2023-04-27T14:47:24.915Z,1.45
2023-04-27T14:51:36.458Z,1.70
2023-04-27T14:55:47.965Z,1.42
2023-04-27T15:00:00.313Z,1.30
2023-04-27T15:04:12.182Z,1.25
2023-04-27T15:08:23.912Z,1.58
2023-04-27T15:12:35.394Z,1.70
2023-04-27T15:16:46.884Z,1.40
2023-04-27T15:20:59.645Z,1.40
2023-04-27T15:25:11.229Z,1.27
2023-04-27T15:29:22.806Z,1.65
2023-04-27T15:33:34.299Z,1.30
2023-04-27T15:37:45.922Z,1.33
2023-04-27T15:41:59.476Z,1.20
2023-04-27T15:46:11.398Z,1.42
2023-04-27T15:50:23.197Z,1.88
2023-04-27T15:54:34.679Z,1.50
2023-04-27T15:58:46.173Z,1.40
2023-04-27T16:02:58.006Z,1.40
2023-04-27T16:07:09.678Z,1.10
2023-04-27T16:11:21.358Z,1.20
2023-04-27T16:15:32.866Z,1.23
2023-04-27T16:19:44.392Z,1.10
2023-04-27T16:23:55.969Z,1.30
2023-04-27T16:28:07.711Z,1.30
2023-04-27T16:32:20.502Z,1.50
2023-04-27T16:36:34.990Z,1.70
2023-04-27T16:40:46.535Z,1.73
2023-04-27T16:44:58.040Z,1.40
2023-04-27T16:49:10.170Z,1.23
2023-04-27T16:53:21.912Z,1.40
2023-04-27T16:57:33.474Z,1.50
2023-04-27T17:01:45.055Z,1.20
2023-04-27T17:05:56.632Z,1.20
2023-04-27T17:10:09.295Z,1.40
2023-04-27T17:14:22.369Z,1.25
2023-04-27T17:18:35.512Z,1.40
2023-04-27T17:22:47.013Z,1.20
2023-04-27T17:26:58.509Z,1.20
2023-04-27T17:31:10.091Z,1.40
2023-04-27T17:35:21.723Z,1.40
2023-04-27T17:39:33.244Z,2.80
2023-04-27T17:43:44.933Z,3.78
2023-04-27T17:47:56.652Z,2.63
2023-04-27T17:52:08.299Z,8.18
2023-04-27T17:56:19.883Z,16.63
2023-04-27T18:00:31.534Z,4.75
2023-04-27T18:04:43.124Z,1.88
2023-04-27T18:08:54.741Z,1.70
2023-04-27T18:13:06.290Z,1.58
2023-04-27T18:17:17.769Z,1.38
2023-04-27T18:21:29.914Z,1.50
2023-04-27T18:25:41.415Z,1.70
2023-04-27T18:29:52.918Z,2.42
2023-04-27T18:34:04.432Z,11.15
2023-04-27T18:38:16.139Z,3.00
2023-04-27T18:42:27.737Z,3.70
2023-04-27T18:46:39.693Z,3.08
2023-04-27T18:50:51.224Z,7.85
2023-04-27T18:55:03.789Z,7.75
2023-04-27T18:59:15.546Z,8.82
2023-04-27T19:03:27.554Z,3.30
2023-04-27T19:07:39.231Z,3.80
2023-04-27T19:12:01.977Z,3.22
2023-04-27T19:16:15.500Z,6.07
2023-04-27T19:20:27.059Z,7.78
2023-04-27T19:24:38.643Z,5.57
2023-04-27T19:28:50.175Z,7.07
2023-04-27T19:33:02.162Z,7.13
2023-04-27T19:37:13.875Z,6.00
2023-04-27T19:41:25.588Z,5.63
2023-04-27T19:45:38.810Z,2.85
2023-04-27T19:49:50.342Z,2.00
2023-04-27T19:54:01.831Z,1.70
2023-04-27T19:58:13.319Z,1.67
2023-04-27T20:02:25.014Z,1.58
2023-04-27T20:06:36.792Z,1.90
2023-04-27T20:10:48.303Z,2.70
2023-04-27T20:15:00.006Z,2.53
2023-04-27T20:19:12.545Z,2.42
2023-04-27T20:23:24.215Z,2.92
2023-04-27T20:27:35.965Z,2.28
2023-04-27T20:31:48.528Z,3.00
2023-04-27T20:36:06.700Z,3.15
2023-04-27T20:40:28.176Z,3.40
2023-04-27T20:44:39.728Z,3.70
2023-04-27T20:48:51.242Z,3.70
2023-04-27T20:53:03.305Z,4.07
2023-04-27T20:57:14.902Z,3.80
2023-04-27T21:01:26.639Z,4.53
2023-04-27T21:05:38.386Z,4.00
2023-04-27T21:09:50.073Z,3.70
2023-04-27T21:14:01.627Z,2.80
2023-04-27T21:18:22.473Z,3.00
2023-04-27T21:22:40.876Z,2.60
2023-04-27T21:26:52.477Z,2.83
